createdAt,value
2023-04-13T00:02:22.013Z,99172.08
2023-04-13T00:04:54.760Z,99174.05
2023-04-13T00:07:28.335Z,99173.05
2023-04-13T00:10:03.049Z,99173.85
2023-04-13T00:12:35.392Z,99173.88
2023-04-13T00:15:08.551Z,99169.44
2023-04-13T00:17:40.306Z,99169.86
2023-04-13T00:20:14.686Z,99162.70
2023-04-13T00:22:47.880Z,99155.74
2023-04-13T00:25:20.131Z,99155.42
2023-04-13T00:27:53.850Z,99150.48
2023-04-13T00:30:25.557Z,99152.55
2023-04-13T00:32:59.577Z,99149.70
2023-04-13T00:35:32.873Z,99154.85
2023-04-13T00:38:04.854Z,99154.21
2023-04-13T00:40:37.792Z,99159.02
2023-04-13T00:43:09.856Z,99162.25
2023-04-13T00:45:41.981Z,99165.23
2023-04-13T00:48:14.435Z,99168.21
2023-04-13T00:50:46.428Z,99171.94
2023-04-13T00:53:18.578Z,99170.20
2023-04-13T00:55:51.757Z,99177.89
2023-04-13T00:58:23.710Z,99183.93
2023-04-13T01:00:55.665Z,99181.11
2023-04-13T01:03:27.540Z,99184.17
2023-04-13T01:06:14.260Z,99183.41
2023-04-13T01:08:51.760Z,99190.80
2023-04-13T01:11:30.047Z,99204.52
2023-04-13T01:14:10.117Z,99207.17
2023-04-13T01:16:49.247Z,99207.47
2023-04-13T01:19:29.530Z,99209.67
2023-04-13T01:22:03.517Z,99217.37
2023-04-13T01:24:48.107Z,99215.40
2023-04-13T01:27:25.663Z,99214.80
2023-04-13T01:29:58.936Z,99207.69
2023-04-13T01:32:33.280Z,99209.77
2023-04-13T01:35:06.710Z,99210.83
2023-04-13T01:37:38.971Z,99203.95
2023-04-13T01:40:13.487Z,99201.63
2023-04-13T01:42:49.385Z,99197.08
2023-04-13T01:45:24.048Z,99194.23
2023-04-13T01:48:05.771Z,99196.64
2023-04-13T01:50:59.683Z,99196.10
2023-04-13T01:53:45.938Z,99196.33
2023-04-13T01:56:23.008Z,99190.92
2023-04-13T01:59:00.802Z,99184.11
2023-04-13T02:01:34.042Z,99184.60
2023-04-13T02:04:07.764Z,99180.58
2023-04-13T02:06:42.239Z,99176.83
2023-04-13T02:09:14.497Z,99181.02
2023-04-13T02:11:47.414Z,99190.62
2023-04-13T02:14:19.186Z,99191.48
2023-04-13T02:16:51.831Z,99201.35
2023-04-13T02:19:24.644Z,99205.95
2023-04-13T02:21:56.902Z,99204.73
2023-04-13T02:24:30.185Z,99203.84
2023-04-13T02:27:02.061Z,99209.90
2023-04-13T02:29:34.261Z,99210.00
2023-04-13T02:32:07.861Z,99208.73
2023-04-13T02:34:39.903Z,99206.14
2023-04-13T02:37:12.691Z,99211.86
2023-04-13T02:39:44.487Z,99209.19
2023-04-13T02:42:16.409Z,99214.05
2023-04-13T02:44:49.965Z,99215.94
2023-04-13T02:47:22.632Z,99214.66
2023-04-13T02:49:55.085Z,99217.73
2023-04-13T02:52:32.012Z,99220.87
2023-04-13T02:55:09.633Z,99218.41
2023-04-13T02:58:02.685Z,99216.65
2023-04-13T03:00:37.448Z,99220.05
2023-04-13T03:03:13.234Z,99216.57
2023-04-13T03:05:50.521Z,99215.67
2023-04-13T03:08:26.098Z,99216.76
2023-04-13T03:11:18.815Z,99215.91
2023-04-13T03:13:58.335Z,99209.95
2023-04-13T03:16:32.088Z,99214.79
2023-04-13T03:19:05.396Z,99219.04
2023-04-13T03:21:37.670Z,99223.41
2023-04-13T03:24:19.077Z,99225.77
2023-04-13T03:26:50.855Z,99224.04
2023-04-13T03:29:26.816Z,99221.55
2023-04-13T03:31:58.625Z,99222.90
2023-04-13T03:34:31.907Z,99222.26
2023-04-13T03:37:05.424Z,99223.61
2023-04-13T03:39:37.279Z,99226.21
2023-04-13T03:42:09.322Z,99222.06
2023-04-13T03:44:42.989Z,99227.92
2023-04-13T03:47:14.797Z,99228.77
2023-04-13T03:49:46.607Z,99231.73
2023-04-13T03:52:18.610Z,99229.64
2023-04-13T03:54:56.542Z,99225.58
2023-04-13T03:57:30.722Z,99225.16
2023-04-13T04:00:03.817Z,99220.49
2023-04-13T04:02:58.244Z,99218.69
2023-04-13T04:05:36.517Z,99218.02
2023-04-13T04:08:07.559Z,99222.97
2023-04-13T04:10:39.738Z,99224.70
2023-04-13T04:13:11.984Z,99226.69
2023-04-13T04:15:47.298Z,99231.97
2023-04-13T04:18:19.874Z,99234.84
2023-04-13T04:20:52.082Z,99233.93
2023-04-13T04:23:28.209Z,99238.85
2023-04-13T04:26:07.450Z,99244.25
2023-04-13T04:28:50.624Z,99246.83
2023-04-13T04:31:25.161Z,99241.30
2023-04-13T04:33:58.544Z,99244.15
2023-04-13T04:36:30.904Z,99248.19
2023-04-13T04:39:06.188Z,99250.42
2023-04-13T04:41:44.090Z,99239.02
2023-04-13T04:44:17.895Z,99241.89
2023-04-13T04:46:52.284Z,99244.73
2023-04-13T04:49:24.437Z,99248.33
2023-04-13T04:51:59.099Z,99246.29
2023-04-13T04:54:30.905Z,99241.23
2023-04-13T04:57:04.074Z,99241.54
2023-04-13T04:59:36.223Z,99238.39
2023-04-13T05:02:08.238Z,99243.00
2023-04-13T05:04:42.032Z,99241.61
2023-04-13T05:07:17.624Z,99249.73
2023-04-13T05:09:50.297Z,99261.19
2023-04-13T05:12:23.085Z,99263.56
2023-04-13T05:14:55.036Z,99254.67
2023-04-13T05:17:27.387Z,99248.13
2023-04-13T05:19:58.124Z,99243.21
2023-04-13T05:22:41.592Z,99248.58
2023-04-13T05:25:14.651Z,99253.88
2023-04-13T05:27:47.532Z,99259.50
2023-04-13T05:30:20.096Z,99269.05
2023-04-13T05:32:53.025Z,99273.31
2023-04-13T05:35:27.871Z,99276.98
2023-04-13T05:38:01.256Z,99278.05
2023-04-13T05:40:35.299Z,99279.00
2023-04-13T05:43:07.894Z,99280.23
2023-04-13T05:45:43.488Z,99277.85
2023-04-13T05:48:18.046Z,99283.91
2023-04-13T05:50:50.865Z,99287.39
2023-04-13T05:53:23.620Z,99289.68
2023-04-13T05:55:59.668Z,99297.36
2023-04-13T05:58:31.868Z,99298.79
2023-04-13T06:01:24.380Z,99300.20
2023-04-13T06:03:57.897Z,99294.91
2023-04-13T06:06:30.395Z,99289.63
2023-04-13T06:09:02.911Z,99293.49
2023-04-13T06:11:34.978Z,99291.95
2023-04-13T06:14:06.378Z,99291.20
2023-04-13T06:16:38.329Z,99291.77
2023-04-13T06:19:12.394Z,99290.52
2023-04-13T06:21:44.600Z,99290.91
2023-04-13T06:24:18.637Z,99290.02
2023-04-13T06:26:51.257Z,99291.05
2023-04-13T06:29:23.548Z,99297.77
2023-04-13T06:32:04.270Z,99297.66
2023-04-13T06:34:35.590Z,99300.41
2023-04-13T06:37:07.934Z,99306.42
2023-04-13T06:39:47.588Z,99307.14
2023-04-13T06:42:20.641Z,99310.84
2023-04-13T06:45:24.738Z,99310.98
2023-04-13T06:47:57.048Z,99313.92
2023-04-13T06:50:30.012Z,99314.45
2023-04-13T06:53:03.601Z,99316.70
2023-04-13T06:55:36.252Z,99320.55
2023-04-13T06:58:08.290Z,99324.39
2023-04-13T07:00:40.121Z,99322.02
2023-04-13T07:03:12.227Z,99333.22
2023-04-13T07:05:45.104Z,99335.02
2023-04-13T07:08:20.198Z,99341.17
2023-04-13T07:10:57.984Z,99344.92
2023-04-13T07:13:37.186Z,99343.27
2023-04-13T07:16:12.386Z,99345.69
2023-04-13T07:18:47.075Z,99348.84
2023-04-13T07:21:19.084Z,99342.00
2023-04-13T07:24:04.735Z,99346.34
2023-04-13T07:26:37.008Z,99346.06
2023-04-13T07:29:13.673Z,99349.38
2023-04-13T07:31:48.902Z,99348.73
2023-04-13T07:34:21.858Z,99351.08
2023-04-13T07:36:54.454Z,99353.64
2023-04-13T07:39:27.859Z,99360.21
2023-04-13T07:42:00.309Z,99364.93
2023-04-13T07:44:39.399Z,99367.16
2023-04-13T07:47:13.914Z,99367.73
2023-04-13T07:49:46.777Z,99374.92
2023-04-13T07:52:21.958Z,99377.55
2023-04-13T07:54:54.123Z,99377.98
2023-04-13T07:57:27.509Z,99381.89
2023-04-13T08:00:05.175Z,99387.66
2023-04-13T08:02:45.931Z,99401.84
2023-04-13T08:05:22.043Z,99402.06
2023-04-13T08:07:54.632Z,99404.21
2023-04-13T08:10:27.047Z,99406.56
2023-04-13T08:13:00.466Z,99403.77
2023-04-13T08:15:32.637Z,99404.65
2023-04-13T08:18:04.894Z,99404.69
2023-04-13T08:20:37.541Z,99405.31
2023-04-13T08:23:12.473Z,99407.61
2023-04-13T08:25:45.511Z,99408.39
2023-04-13T08:28:20.554Z,99412.89
2023-04-13T08:30:52.597Z,99410.25
2023-04-13T08:33:24.444Z,99416.33
2023-04-13T08:35:56.336Z,99415.79
2023-04-13T08:38:28.604Z,99415.91
2023-04-13T08:41:02.506Z,99415.55
2023-04-13T08:43:36.910Z,99415.36
2023-04-13T08:46:10.246Z,99422.93
2023-04-13T08:48:53.567Z,99426.29
2023-04-13T08:51:31.275Z,99420.09
2023-04-13T08:54:03.080Z,99417.83
2023-04-13T08:56:46.652Z,99417.80
2023-04-13T08:59:24.199Z,99414.61
2023-04-13T09:01:57.393Z,99411.94
2023-04-13T09:04:35.768Z,99419.06
2023-04-13T09:07:09.313Z,99415.70
2023-04-13T09:09:45.799Z,99412.08
2023-04-13T09:12:18.810Z,99413.97
2023-04-13T09:14:51.234Z,99415.08
2023-04-13T09:17:28.011Z,99410.00
2023-04-13T09:20:14.868Z,99410.13
2023-04-13T09:22:47.048Z,99410.62
2023-04-13T09:25:27.523Z,99407.83
2023-04-13T09:28:00.921Z,99401.27
2023-04-13T09:30:32.725Z,99396.21
2023-04-13T09:33:10.519Z,99395.24
2023-04-13T09:35:43.209Z,99395.13
2023-04-13T09:38:18.061Z,99395.98
2023-04-13T09:40:54.519Z,99389.70
2023-04-13T09:43:37.646Z,99391.95
2023-04-13T09:46:14.884Z,99392.69
2023-04-13T09:48:46.962Z,99395.83
2023-04-13T09:51:20.383Z,99396.27
2023-04-13T09:53:56.249Z,99396.49
2023-04-13T09:56:28.432Z,99399.23
2023-04-13T09:59:00.505Z,99404.89
2023-04-13T10:01:32.963Z,99407.70
2023-04-13T10:04:07.582Z,99406.54
2023-04-13T10:06:43.225Z,99403.96
2023-04-13T10:09:16.082Z,99406.29
2023-04-13T10:11:47.915Z,99404.44
2023-04-13T10:14:22.949Z,99406.70
2023-04-13T10:17:12.885Z,99405.79
2023-04-13T10:19:47.798Z,99402.88
2023-04-13T10:22:22.798Z,99405.56
2023-04-13T10:24:55.122Z,99407.19
2023-04-13T10:27:29.886Z,99406.85
2023-04-13T10:30:04.091Z,99412.45
2023-04-13T10:32:36.017Z,99412.20
2023-04-13T10:35:15.189Z,99418.17
2023-04-13T10:37:57.572Z,99423.89
2023-04-13T10:40:29.763Z,99432.20
2023-04-13T10:43:01.831Z,99434.06
2023-04-13T10:45:37.004Z,99429.74
2023-04-13T10:48:09.152Z,99424.85
2023-04-13T10:50:41.448Z,99430.63
2023-04-13T10:53:13.299Z,99434.14
2023-04-13T10:55:45.236Z,99436.55
2023-04-13T10:58:18.606Z,99441.86
2023-04-13T11:00:52.238Z,99439.19
2023-04-13T11:03:27.743Z,99434.66
2023-04-13T11:06:01.341Z,99435.20
2023-04-13T11:08:34.979Z,99436.29
2023-04-13T11:11:16.801Z,99442.98
2023-04-13T11:13:50.595Z,99447.02
2023-04-13T11:16:22.488Z,99448.65
2023-04-13T11:19:05.039Z,99449.88
2023-04-13T11:21:37.175Z,99456.46
2023-04-13T11:24:10.228Z,99453.98
2023-04-13T11:26:43.482Z,99446.70
2023-04-13T11:29:21.743Z,99445.45
2023-04-13T11:31:53.603Z,99445.65
2023-04-13T11:34:29.790Z,99446.25
2023-04-13T11:37:05.737Z,99451.20
2023-04-13T11:39:40.069Z,99451.52
2023-04-13T11:42:12.638Z,99454.09
2023-04-13T11:44:46.414Z,99453.59
2023-04-13T11:47:21.253Z,99452.91
2023-04-13T11:49:53.871Z,99455.52
2023-04-13T11:52:26.665Z,99459.30
2023-04-13T11:55:04.684Z,99460.40
2023-04-13T11:57:43.069Z,99463.11
2023-04-13T12:00:23.947Z,99460.99
2023-04-13T12:05:34.458Z,99463.59
2023-04-13T12:08:07.399Z,99460.98
2023-04-13T12:10:47.030Z,99464.43
2023-04-13T12:13:40.036Z,99472.36
2023-04-13T12:19:12.674Z,99487.36
2023-04-13T12:21:56.830Z,99486.75
2023-04-13T12:24:38.664Z,99480.55
2023-04-13T12:27:18.372Z,99482.04
2023-04-13T12:29:50.814Z,99489.70
2023-04-13T12:32:26.993Z,99499.54
2023-04-13T12:34:58.850Z,99501.02
2023-04-13T12:37:30.616Z,99499.34
2023-04-13T12:40:05.488Z,99502.02
2023-04-13T12:42:37.724Z,99494.93
2023-04-13T12:45:11.421Z,99493.45
2023-04-13T12:47:43.347Z,99496.01
2023-04-13T12:50:15.780Z,99504.48
2023-04-13T12:52:47.648Z,99507.78
2023-04-13T12:55:19.434Z,99508.36
2023-04-13T12:57:51.378Z,99511.40
2023-04-13T13:00:24.740Z,99514.80
2023-04-13T13:03:10.141Z,99517.23
2023-04-13T13:05:45.149Z,99520.39
2023-04-13T13:08:17.279Z,99523.83
2023-04-13T13:10:49.147Z,99518.39
2023-04-13T13:13:21.396Z,99519.80
2023-04-13T13:15:53.238Z,99517.39
2023-04-13T13:18:38.488Z,99519.35
2023-04-13T13:21:19.356Z,99516.95
2023-04-13T13:23:51.580Z,99518.56
2023-04-13T13:26:25.115Z,99522.36
2023-04-13T13:29:01.075Z,99516.56
2023-04-13T13:31:33.438Z,99517.29
2023-04-13T13:34:05.625Z,99516.73
2023-04-13T13:36:40.340Z,99512.85
2023-04-13T13:39:13.420Z,99514.61
2023-04-13T13:41:45.371Z,99514.26
2023-04-13T13:44:17.529Z,99522.00
2023-04-13T13:46:49.884Z,99526.20
2023-04-13T13:49:24.897Z,99526.70
2023-04-13T13:52:17.153Z,99533.20
2023-04-13T13:54:52.376Z,99536.80
2023-04-13T13:57:24.630Z,99538.30
2023-04-13T13:59:56.907Z,99540.10
2023-04-13T14:02:28.883Z,99532.70
2023-04-13T14:05:01.141Z,99539.48
2023-04-13T14:07:33.826Z,99540.79
2023-04-13T14:10:06.475Z,99546.80
2023-04-13T14:12:39.201Z,99550.30
2023-04-13T14:15:13.378Z,99554.28
2023-04-13T14:17:55.517Z,99560.05
2023-04-13T14:20:34.044Z,99560.93
2023-04-13T14:23:05.998Z,99563.52
2023-04-13T14:25:38.714Z,99564.48
2023-04-13T14:28:09.486Z,99567.09
2023-04-13T14:30:42.039Z,99571.48
2023-04-13T14:33:14.759Z,99572.80
2023-04-13T14:35:45.564Z,99573.89
2023-04-13T14:38:17.833Z,99578.42
2023-04-13T14:40:49.753Z,99579.20
2023-04-13T14:43:21.662Z,99581.45
2023-04-13T14:45:56.505Z,99580.96
2023-04-13T14:48:28.524Z,99584.96
2023-04-13T14:51:00.956Z,99586.29
2023-04-13T14:53:33.059Z,99585.45
2023-04-13T14:56:05.556Z,99587.60
2023-04-13T14:58:37.427Z,99587.39
2023-04-13T15:01:19.898Z,99586.94
2023-04-13T15:03:53.418Z,99588.98
2023-04-13T15:06:27.335Z,99592.28
2023-04-13T15:09:00.693Z,99591.52
2023-04-13T15:11:33.645Z,99597.81
2023-04-13T15:14:05.779Z,99598.39
2023-04-13T15:16:37.886Z,99595.84
2023-04-13T15:19:09.931Z,99594.36
2023-04-13T15:21:41.820Z,99596.91
2023-04-13T15:24:13.785Z,99595.09
2023-04-13T15:26:46.041Z,99595.11
2023-04-13T15:29:17.874Z,99598.79
2023-04-13T15:31:51.702Z,99596.22
2023-04-13T15:34:24.542Z,99594.00
2023-04-13T15:36:55.689Z,99595.21
2023-04-13T15:39:28.403Z,99598.45
2023-04-13T15:42:00.517Z,99601.30
2023-04-13T15:44:32.538Z,99606.85
2023-04-13T15:47:04.446Z,99605.98
2023-04-13T15:49:36.394Z,99608.69
2023-04-13T15:52:08.521Z,99604.92
2023-04-13T15:54:41.258Z,99606.70
2023-04-13T15:57:13.236Z,99606.58
2023-04-13T15:59:46.421Z,99610.06
2023-04-13T16:02:18.489Z,99609.23
2023-04-13T16:04:51.011Z,99613.83
2023-04-13T16:07:23.353Z,99618.70
2023-04-13T16:09:58.320Z,99614.69
2023-04-13T16:12:32.424Z,99615.18
2023-04-13T16:15:06.259Z,99616.98
2023-04-13T16:17:41.027Z,99615.46
2023-04-13T16:20:21.276Z,99617.77
2023-04-13T16:22:58.104Z,99621.27
2023-04-13T16:25:30.771Z,99619.16
2023-04-13T16:28:02.695Z,99621.00
2023-04-13T16:30:34.618Z,99617.20
2023-04-13T16:33:06.724Z,99620.45
2023-04-13T16:35:38.620Z,99623.42
2023-04-13T16:38:10.799Z,99631.57
2023-04-13T16:40:46.209Z,99632.10
2023-04-13T16:43:19.429Z,99629.66
2023-04-13T16:45:52.345Z,99636.82
2023-04-13T16:48:26.980Z,99639.00
2023-04-13T16:51:02.601Z,99640.79
2023-04-13T16:53:34.538Z,99643.67
2023-04-13T16:56:07.336Z,99646.17
2023-04-13T16:58:39.396Z,99653.09
2023-04-13T17:01:11.523Z,99659.50
2023-04-13T17:03:43.544Z,99662.42
2023-04-13T17:06:15.835Z,99660.15
2023-04-13T17:08:48.212Z,99665.25
2023-04-13T17:11:18.935Z,99674.02
2023-04-13T17:13:51.513Z,99674.05
2023-04-13T17:16:24.751Z,99683.69
2023-04-13T17:18:56.661Z,99682.37
2023-04-13T17:21:28.744Z,99685.34
2023-04-13T17:24:00.682Z,99683.84
2023-04-13T17:26:33.258Z,99686.70
2023-04-13T17:29:05.077Z,99687.75
2023-04-13T17:31:37.454Z,99685.36
2023-04-13T17:34:09.528Z,99686.98
2023-04-13T17:36:41.411Z,99689.45
2023-04-13T17:39:13.260Z,99691.77
2023-04-13T17:41:45.570Z,99691.71
2023-04-13T17:44:17.678Z,99692.35
2023-04-13T17:46:54.351Z,99697.70
2023-04-13T17:49:27.887Z,99698.45
2023-04-13T17:52:01.742Z,99697.95
2023-04-13T17:54:34.103Z,99707.34
2023-04-13T17:57:07.336Z,99709.03
2023-04-13T17:59:39.645Z,99708.56
2023-04-13T18:02:11.900Z,99708.22
2023-04-13T18:04:44.798Z,99712.23
2023-04-13T18:07:17.482Z,99716.31
2023-04-13T18:09:48.266Z,99713.30
2023-04-13T18:12:20.259Z,99711.85
2023-04-13T18:14:52.125Z,99722.38
2023-04-13T18:17:24.335Z,99719.23
2023-04-13T18:19:56.621Z,99726.39
2023-04-13T18:22:28.559Z,99725.86
2023-04-13T18:25:00.715Z,99729.48
2023-04-13T18:27:32.680Z,99725.20
2023-04-13T18:30:04.868Z,99730.25
2023-04-13T18:32:37.538Z,99729.73
2023-04-13T18:35:12.379Z,99729.60
2023-04-13T18:37:44.658Z,99730.80
2023-04-13T18:40:17.039Z,99732.77
2023-04-13T18:42:50.084Z,99736.36
2023-04-13T18:45:22.554Z,99733.90
2023-04-13T18:47:55.067Z,99739.63
2023-04-13T18:50:27.654Z,99738.09
2023-04-13T18:52:58.077Z,99740.27
2023-04-13T18:55:31.327Z,99739.10
2023-04-13T18:58:03.433Z,99741.14
2023-04-13T19:00:38.464Z,99743.25
2023-04-13T19:03:11.211Z,99743.34
2023-04-13T19:05:43.932Z,99748.24
2023-04-13T19:08:15.419Z,99745.05
2023-04-13T19:10:49.312Z,99751.63
2023-04-13T19:13:21.586Z,99753.02
2023-04-13T19:15:54.373Z,99751.46
2023-04-13T19:18:27.847Z,99755.43
2023-04-13T19:21:01.082Z,99759.70
2023-04-13T19:23:33.279Z,99758.80
2023-04-13T19:26:06.389Z,99755.16
2023-04-13T19:28:38.630Z,99752.16
2023-04-13T19:31:11.765Z,99746.34
2023-04-13T19:33:42.231Z,99744.96
2023-04-13T19:36:14.999Z,99743.44
2023-04-13T19:38:47.038Z,99746.91
2023-04-13T19:41:19.157Z,99745.98
2023-04-13T19:43:51.563Z,99746.18
2023-04-13T19:46:22.233Z,99747.15
2023-04-13T19:48:54.445Z,99750.73
2023-04-13T19:51:26.663Z,99748.50
2023-04-13T19:54:01.241Z,99751.54
2023-04-13T19:56:35.685Z,99752.46
2023-04-13T19:59:09.222Z,99750.40
2023-04-13T20:01:41.732Z,99754.61
2023-04-13T20:04:12.754Z,99756.88
2023-04-13T20:06:45.043Z,99760.02
2023-04-13T20:09:17.342Z,99765.45
2023-04-13T20:11:49.421Z,99763.15
2023-04-13T20:14:21.762Z,99763.54
2023-04-13T20:16:53.731Z,99769.73
2023-04-13T20:19:26.166Z,99769.69
2023-04-13T20:22:02.094Z,99768.57
2023-04-13T20:24:34.579Z,99770.67
2023-04-13T20:27:06.845Z,99772.45
2023-04-13T20:29:41.839Z,99772.41
2023-04-13T20:32:13.831Z,99777.11
2023-04-13T20:34:45.949Z,99777.34
2023-04-13T20:37:18.577Z,99785.35
2023-04-13T20:39:51.035Z,99784.55
2023-04-13T20:42:23.444Z,99788.67
2023-04-13T20:45:01.779Z,99791.88
2023-04-13T20:47:35.585Z,99792.07
2023-04-13T20:50:10.366Z,99790.20
2023-04-13T20:52:42.814Z,99791.83
2023-04-13T20:55:17.068Z,99792.33
2023-04-13T20:57:50.373Z,99791.10
2023-04-13T21:00:25.021Z,99793.31
2023-04-13T21:02:57.964Z,99793.94
2023-04-13T21:05:30.185Z,99790.54
2023-04-13T21:08:02.096Z,99790.45
2023-04-13T21:10:34.052Z,99787.48
2023-04-13T21:13:10.452Z,99789.50
2023-04-13T21:15:42.715Z,99780.84
2023-04-13T21:18:15.013Z,99777.59
2023-04-13T21:20:46.799Z,99779.63
2023-04-13T21:23:18.650Z,99777.48
2023-04-13T21:25:50.511Z,99772.70
2023-04-13T21:28:22.230Z,99768.61
2023-04-13T21:30:54.074Z,99766.96
2023-04-13T21:33:25.954Z,99764.73
2023-04-13T21:35:57.756Z,99765.75
2023-04-13T21:38:29.441Z,99762.84
2023-04-13T21:41:01.713Z,99754.86
2023-04-13T21:43:33.853Z,99756.54
2023-04-13T21:46:06.021Z,99762.98
2023-04-13T21:48:37.955Z,99761.08
2023-04-13T21:51:11.279Z,99757.10
2023-04-13T21:53:43.113Z,99757.31
2023-04-13T21:56:14.968Z,99755.04
2023-04-13T21:58:47.609Z,99753.77
2023-04-13T22:01:19.460Z,99753.45
2023-04-13T22:03:52.372Z,99750.49
2023-04-13T22:06:24.178Z,99746.94
2023-04-13T22:08:55.980Z,99743.55
2023-04-13T22:11:27.799Z,99736.02
2023-04-13T22:14:00.099Z,99737.99
2023-04-13T22:16:32.018Z,99739.76
2023-04-13T22:19:04.128Z,99736.94
2023-04-13T22:21:38.678Z,99736.46
2023-04-13T22:24:10.590Z,99732.14
2023-04-13T22:26:42.531Z,99734.69
2023-04-13T22:29:14.461Z,99731.85
2023-04-13T22:31:46.815Z,99731.17
2023-04-13T22:34:19.123Z,99734.64
2023-04-13T22:36:53.096Z,99737.57
2023-04-13T22:39:25.654Z,99731.18
2023-04-13T22:41:58.241Z,99729.84
2023-04-13T22:44:35.035Z,99727.67
2023-04-13T22:47:07.051Z,99727.66
2023-04-13T22:49:38.798Z,99729.53
2023-04-13T22:52:11.593Z,99732.11
2023-04-13T22:54:41.860Z,99730.65
2023-04-13T22:57:13.554Z,99735.40
2023-04-13T22:59:45.813Z,99732.92
2023-04-13T23:02:17.750Z,99736.38
2023-04-13T23:04:49.870Z,99733.96
2023-04-13T23:07:21.980Z,99736.71
2023-04-13T23:09:54.716Z,99732.82
2023-04-13T23:12:27.081Z,99732.96
2023-04-13T23:14:59.331Z,99732.47
2023-04-13T23:17:31.227Z,99726.89
2023-04-13T23:20:05.432Z,99723.75
2023-04-13T23:22:37.639Z,99722.84
2023-04-13T23:25:10.553Z,99716.98
2023-04-13T23:27:42.319Z,99715.61
2023-04-13T23:30:16.005Z,99715.90
2023-04-13T23:32:47.970Z,99713.34
2023-04-13T23:35:20.107Z,99711.77
2023-04-13T23:37:52.113Z,99711.98
2023-04-13T23:40:24.128Z,99710.80
2023-04-13T23:42:55.997Z,99706.98
2023-04-13T23:45:28.532Z,99702.91
2023-04-13T23:48:00.502Z,99699.96
2023-04-13T23:50:32.366Z,99699.31
2023-04-13T23:53:04.092Z,99700.67
2023-04-13T23:55:35.993Z,99690.02
2023-04-13T23:58:07.833Z,99699.45
